createdAt,value
2017-10-27T00:02:09.410Z,96088.52
2017-10-27T00:04:37.378Z,96092.79
2017-10-27T00:07:04.977Z,96084.83
2017-10-27T00:09:32.683Z,96092.79
2017-10-27T00:12:00.263Z,96091.52
2017-10-27T00:14:27.827Z,96088.63
2017-10-27T00:16:55.426Z,96096.45
2017-10-27T00:19:22.965Z,96087.00
2017-10-27T00:21:50.501Z,96085.62
2017-10-27T00:24:18.117Z,96080.33
2017-10-27T00:26:45.672Z,96083.14
2017-10-27T00:29:13.322Z,96084.89
2017-10-27T00:31:40.898Z,96077.42
2017-10-27T00:34:08.442Z,96068.98
2017-10-27T00:36:35.975Z,96069.73
2017-10-27T00:39:03.659Z,96068.09
2017-10-27T00:41:31.320Z,96066.66
2017-10-27T00:43:59.126Z,96057.04
2017-10-27T00:46:26.726Z,96064.00
2017-10-27T00:48:55.123Z,96055.77
2017-10-27T00:51:22.869Z,96056.67
2017-10-27T00:53:50.479Z,96057.53
2017-10-27T00:56:18.076Z,96047.98
2017-10-27T00:58:48.448Z,96055.83
2017-10-27T01:01:16.198Z,96047.81
2017-10-27T01:03:46.639Z,96040.20
2017-10-27T01:06:18.319Z,96033.25
2017-10-27T01:08:48.706Z,96032.52
2017-10-27T01:11:18.578Z,96037.95
2017-10-27T01:13:54.053Z,96040.34
2017-10-27T01:16:22.985Z,96034.97
2017-10-27T01:18:59.538Z,96035.07
2017-10-27T01:21:29.983Z,96030.44
2017-10-27T01:24:00.353Z,96034.68
2017-10-27T01:26:30.550Z,96027.16
2017-10-27T01:28:59.699Z,96022.39
2017-10-27T01:31:32.126Z,96022.47
2017-10-27T01:33:59.835Z,96014.36
2017-10-27T01:36:27.455Z,96015.33
2017-10-27T01:38:57.687Z,95988.65
2017-10-27T01:41:25.822Z,96005.45
2017-10-27T01:43:53.975Z,96006.59
2017-10-27T01:46:28.677Z,96015.20
2017-10-27T01:48:59.075Z,96009.40
2017-10-27T01:51:28.614Z,96009.80
2017-10-27T01:53:59.314Z,96003.38
2017-10-27T01:56:27.787Z,95999.73
2017-10-27T01:58:57.894Z,95993.01
2017-10-27T02:01:27.269Z,95993.02
2017-10-27T02:03:56.804Z,95995.55
2017-10-27T02:06:26.104Z,95982.95
2017-10-27T02:08:58.296Z,95979.19
2017-10-27T02:11:28.688Z,95972.64
2017-10-27T02:13:56.668Z,95959.34
2017-10-27T02:16:24.229Z,95969.91
2017-10-27T02:18:51.850Z,95963.59
2017-10-27T02:21:19.454Z,95956.83
2017-10-27T02:23:47.082Z,95966.94
2017-10-27T02:26:14.904Z,95963.54
2017-10-27T02:28:42.442Z,95963.59
2017-10-27T02:31:16.981Z,95954.44
2017-10-27T02:33:46.119Z,95950.99
2017-10-27T02:36:14.637Z,95953.84
2017-10-27T02:38:44.109Z,95952.88
2017-10-27T02:41:15.328Z,95946.07
2017-10-27T02:43:45.352Z,95946.25
2017-10-27T02:46:15.257Z,95947.86
2017-10-27T02:48:47.369Z,95959.66
2017-10-27T02:51:21.396Z,95951.45
2017-10-27T02:53:52.046Z,95944.48
2017-10-27T02:56:23.150Z,95942.29
2017-10-27T02:58:54.420Z,95946.72
2017-10-27T03:01:23.801Z,95941.84
2017-10-27T03:03:53.523Z,95936.83
2017-10-27T03:06:22.834Z,95944.70
2017-10-27T03:08:54.927Z,95937.72
2017-10-27T03:11:27.254Z,95936.42
2017-10-27T03:13:55.730Z,95930.61
2017-10-27T03:16:25.652Z,95929.62
2017-10-27T03:18:58.329Z,95926.98
2017-10-27T03:21:29.482Z,95932.80
2017-10-27T03:24:00.316Z,95916.16
2017-10-27T03:26:32.842Z,95932.61
2017-10-27T03:29:01.642Z,95925.14
2017-10-27T03:31:31.135Z,95922.23
2017-10-27T03:34:01.220Z,95896.11
2017-10-27T03:36:32.540Z,95916.16
2017-10-27T03:39:04.151Z,95908.42
2017-10-27T03:41:34.418Z,95901.36
2017-10-27T03:44:06.143Z,95891.42
2017-10-27T03:46:36.846Z,95885.42
2017-10-27T03:49:08.848Z,95883.27
2017-10-27T03:51:41.614Z,95888.78
2017-10-27T03:54:12.830Z,95876.20
2017-10-27T03:56:41.512Z,95873.02
2017-10-27T03:59:13.621Z,95870.55
2017-10-27T04:01:42.645Z,95868.55
2017-10-27T04:04:11.586Z,95846.83
2017-10-27T04:06:43.845Z,95864.53
2017-10-27T04:09:14.323Z,95864.08
2017-10-27T04:11:45.202Z,95860.55
2017-10-27T04:14:14.115Z,95852.33
2017-10-27T04:16:45.301Z,95857.12
2017-10-27T04:19:13.117Z,95853.38
2017-10-27T04:21:40.821Z,95846.10
2017-10-27T04:24:08.463Z,95839.08
2017-10-27T04:26:36.293Z,95839.05
2017-10-27T04:29:03.943Z,95840.26
2017-10-27T04:31:31.552Z,95839.37
2017-10-27T04:33:59.086Z,95846.35
2017-10-27T04:36:26.935Z,95838.19
2017-10-27T04:38:54.533Z,95838.61
2017-10-27T04:41:22.343Z,95840.13
2017-10-27T04:43:49.936Z,95833.76
2017-10-27T04:46:17.636Z,95843.20
2017-10-27T04:48:45.422Z,95840.64
2017-10-27T04:51:12.941Z,95835.91
2017-10-27T04:53:40.835Z,95835.95
2017-10-27T04:56:08.370Z,95833.95
2017-10-27T04:58:35.966Z,95827.78
2017-10-27T05:01:03.943Z,95838.83
2017-10-27T05:03:32.335Z,95833.86
2017-10-27T05:05:59.858Z,95839.58
2017-10-27T05:08:27.583Z,95831.44
2017-10-27T05:10:55.131Z,95840.88
2017-10-27T05:13:22.983Z,95824.83
2017-10-27T05:15:50.616Z,95829.97
2017-10-27T05:18:23.718Z,95826.06
2017-10-27T05:20:56.924Z,95817.45
2017-10-27T05:23:29.951Z,95815.73
2017-10-27T05:25:57.578Z,95818.05
2017-10-27T05:28:25.163Z,95811.39
2017-10-27T05:30:52.754Z,95805.58
2017-10-27T05:33:20.336Z,95814.89
2017-10-27T05:35:47.894Z,95812.83
2017-10-27T05:38:15.479Z,95808.69
2017-10-27T05:40:43.012Z,95809.56
2017-10-27T05:43:10.848Z,95798.78
2017-10-27T05:45:38.475Z,95808.87
2017-10-27T05:48:06.231Z,95807.64
2017-10-27T05:50:33.800Z,95813.52
2017-10-27T05:53:01.398Z,95825.57
2017-10-27T05:55:29.001Z,95818.70
2017-10-27T05:57:56.878Z,95814.30
2017-10-27T06:00:25.399Z,95807.76
2017-10-27T06:02:53.852Z,95816.82
2017-10-27T06:05:21.382Z,95811.28
2017-10-27T06:07:48.965Z,95818.28
2017-10-27T06:10:16.517Z,95815.98
2017-10-27T06:12:44.332Z,95821.95
2017-10-27T06:15:11.990Z,95823.33
2017-10-27T06:17:39.763Z,95812.62
2017-10-27T06:20:07.419Z,95809.84
2017-10-27T06:22:35.233Z,95806.31
2017-10-27T06:25:03.023Z,95806.32
2017-10-27T06:27:30.581Z,95804.47
2017-10-27T06:29:58.223Z,95813.53
2017-10-27T06:32:25.978Z,95804.60
2017-10-27T06:34:53.496Z,95800.19
2017-10-27T06:37:22.430Z,95795.72
2017-10-27T06:39:50.155Z,95781.13
2017-10-27T06:42:17.730Z,95778.39
2017-10-27T06:44:45.604Z,95776.20
2017-10-27T06:47:13.245Z,95773.09
2017-10-27T06:49:41.107Z,95770.27
2017-10-27T06:52:08.719Z,95760.07
2017-10-27T06:54:36.415Z,95762.27
2017-10-27T06:57:03.964Z,95760.09
2017-10-27T06:59:31.535Z,95752.95
2017-10-27T07:01:59.154Z,95751.21
2017-10-27T07:04:26.757Z,95753.59
2017-10-27T07:06:54.374Z,95742.91
2017-10-27T07:09:22.014Z,95736.35
2017-10-27T07:11:49.587Z,95735.14
2017-10-27T07:14:32.971Z,95732.23
2017-10-27T07:17:00.560Z,95739.61
2017-10-27T07:19:28.163Z,95728.72
2017-10-27T07:21:55.797Z,95717.08
2017-10-27T07:24:23.363Z,95714.80
2017-10-27T07:26:50.951Z,95709.41
2017-10-27T07:29:18.581Z,95702.13
2017-10-27T07:31:46.246Z,95707.27
2017-10-27T07:34:13.843Z,95706.64
2017-10-27T07:36:41.471Z,95705.86
2017-10-27T07:39:09.091Z,95709.95
2017-10-27T07:41:36.643Z,95701.09
2017-10-27T07:44:04.229Z,95691.02
2017-10-27T07:46:31.918Z,95684.67
2017-10-27T07:48:59.542Z,95669.37
2017-10-27T07:51:27.361Z,95660.70
2017-10-27T07:53:55.010Z,95668.19
2017-10-27T07:56:22.574Z,95648.22
2017-10-27T07:58:50.374Z,95647.42
2017-10-27T08:01:17.979Z,95641.33
2017-10-27T08:03:45.590Z,95637.42
2017-10-27T08:06:13.484Z,95632.73
2017-10-27T08:08:41.113Z,95629.18
2017-10-27T08:11:08.897Z,95623.27
2017-10-27T08:13:36.551Z,95622.28
2017-10-27T08:16:04.227Z,95617.57
2017-10-27T08:18:31.820Z,95616.83
2017-10-27T08:20:59.606Z,95618.37
2017-10-27T08:23:27.231Z,95598.41
2017-10-27T08:25:55.010Z,95592.87
2017-10-27T08:28:22.596Z,95591.69
2017-10-27T08:30:50.231Z,95591.34
2017-10-27T08:33:17.801Z,95593.05
2017-10-27T08:35:45.449Z,95584.78
2017-10-27T08:38:13.097Z,95583.00
2017-10-27T08:40:40.672Z,95575.96
2017-10-27T08:43:08.314Z,95573.89
2017-10-27T08:45:35.913Z,95565.72
2017-10-27T08:48:03.570Z,95565.86
2017-10-27T08:50:31.339Z,95560.23
2017-10-27T08:52:58.931Z,95556.50
2017-10-27T08:55:26.649Z,95555.33
2017-10-27T08:57:54.431Z,95546.17
2017-10-27T09:00:22.052Z,95555.65
2017-10-27T09:02:50.041Z,95546.73
2017-10-27T09:08:58.503Z,95537.33
2017-10-27T09:11:27.676Z,95534.11
2017-10-27T09:13:55.626Z,95525.73
2017-10-27T09:16:23.539Z,95522.25
2017-10-27T09:18:51.443Z,95516.44
2017-10-27T09:21:19.912Z,95509.66
2017-10-27T09:23:48.383Z,95506.56
2017-10-27T09:26:17.111Z,95505.02
2017-10-27T09:28:44.921Z,95495.56
2017-10-27T09:31:13.478Z,95494.66
2017-10-27T09:33:41.123Z,95486.14
2017-10-27T09:36:08.729Z,95475.08
2017-10-27T09:38:36.701Z,95471.53
2017-10-27T09:41:05.204Z,95469.70
2017-10-27T09:43:33.896Z,95457.59
2017-10-27T09:46:01.547Z,95460.75
2017-10-27T09:48:29.551Z,95449.83
2017-10-27T09:50:57.747Z,95439.75
2017-10-27T09:53:26.328Z,95433.03
2017-10-27T09:55:55.010Z,95424.47
2017-10-27T09:58:22.617Z,95430.23
2017-10-27T10:00:50.254Z,95419.16
2017-10-27T10:03:18.108Z,95410.23
2017-10-27T10:05:45.732Z,95407.63
2017-10-27T10:08:13.395Z,95402.88
2017-10-27T10:10:41.363Z,95399.80
2017-10-27T10:13:09.227Z,95395.97
2017-10-27T10:15:36.831Z,95392.53
2017-10-27T10:18:04.642Z,95379.16
2017-10-27T10:20:32.186Z,95372.19
2017-10-27T10:22:59.809Z,95363.23
2017-10-27T10:25:27.467Z,95359.59
2017-10-27T10:27:55.796Z,95356.30
2017-10-27T10:30:23.699Z,95346.16
2017-10-27T10:32:51.328Z,95343.34
2017-10-27T10:35:19.539Z,95332.91
2017-10-27T10:37:47.252Z,95327.34
2017-10-27T10:40:15.074Z,95321.60
2017-10-27T10:42:42.853Z,95319.91
2017-10-27T10:45:12.027Z,95305.20
2017-10-27T10:47:39.859Z,95299.50
2017-10-27T10:50:08.077Z,95296.32
2017-10-27T10:52:35.851Z,95292.74
2017-10-27T10:55:03.394Z,95278.77
2017-10-27T10:57:30.980Z,95277.55
2017-10-27T10:59:58.628Z,95272.88
2017-10-27T11:02:26.219Z,95268.14
2017-10-27T11:04:54.028Z,95265.00
2017-10-27T11:07:22.542Z,95268.42
2017-10-27T11:09:50.623Z,95260.78
2017-10-27T11:12:19.919Z,95259.26
2017-10-27T11:14:49.074Z,95246.50
2017-10-27T11:17:16.779Z,95242.48
2017-10-27T11:19:44.572Z,95228.42
2017-10-27T11:22:13.135Z,95220.51
2017-10-27T11:24:40.824Z,95209.39
2017-10-27T11:27:10.443Z,95206.20
2017-10-27T11:29:38.362Z,95195.91
2017-10-27T11:32:06.051Z,95194.98
2017-10-27T11:34:33.651Z,95192.50
2017-10-27T11:37:02.499Z,95183.78
2017-10-27T11:39:30.143Z,95177.10
2017-10-27T11:41:57.724Z,95173.55
2017-10-27T11:44:25.322Z,95163.55
2017-10-27T11:46:52.998Z,95162.86
2017-10-27T11:49:21.094Z,95154.16
2017-10-27T11:51:48.710Z,95147.30
2017-10-27T11:54:16.442Z,95147.80
2017-10-27T11:56:45.134Z,95141.81
2017-10-27T11:59:13.746Z,95131.39
2017-10-27T12:01:41.403Z,95122.58
2017-10-27T12:04:09.499Z,95118.36
2017-10-27T12:06:38.715Z,95113.10
2017-10-27T12:09:06.437Z,95109.03
2017-10-27T12:11:34.250Z,95102.73
2017-10-27T12:14:02.096Z,95106.20
2017-10-27T12:16:29.787Z,95094.09
2017-10-27T12:18:57.441Z,95088.48
2017-10-27T12:21:25.269Z,95077.66
2017-10-27T12:23:54.942Z,95074.73
2017-10-27T12:26:22.706Z,95071.00
2017-10-27T12:28:50.341Z,95068.53
2017-10-27T12:31:18.934Z,95061.59
2017-10-27T12:33:46.591Z,95053.67
2017-10-27T12:36:14.425Z,95065.10
2017-10-27T12:38:42.540Z,95051.89
2017-10-27T12:41:10.368Z,95042.55
2017-10-27T12:43:38.156Z,95042.97
2017-10-27T12:46:05.775Z,95039.91
2017-10-27T12:48:33.956Z,95032.16
2017-10-27T12:51:02.314Z,95019.22
2017-10-27T12:53:30.569Z,95019.92
2017-10-27T12:55:58.312Z,95024.80
2017-10-27T12:58:26.898Z,95019.62
2017-10-27T13:00:55.111Z,95013.59
2017-10-27T13:03:22.775Z,95008.06
2017-10-27T13:05:50.531Z,95002.30
2017-10-27T13:08:19.207Z,94997.80
2017-10-27T13:10:48.203Z,94989.76
2017-10-27T13:13:16.008Z,94995.43
2017-10-27T13:15:45.371Z,94985.56
2017-10-27T13:18:13.846Z,94985.69
2017-10-27T13:20:41.617Z,94981.20
2017-10-27T13:23:09.240Z,94984.50
2017-10-27T13:25:37.191Z,94979.77
2017-10-27T13:28:04.727Z,94970.42
2017-10-27T13:30:33.341Z,94971.66
2017-10-27T13:33:01.966Z,94973.55
2017-10-27T13:35:30.923Z,94973.59
2017-10-27T13:37:58.525Z,94965.80
2017-10-27T13:40:26.454Z,94965.64
2017-10-27T13:42:54.009Z,94965.77
2017-10-27T13:45:22.436Z,94968.30
2017-10-27T13:47:50.458Z,94958.73
2017-10-27T13:50:18.259Z,94955.86
2017-10-27T13:52:46.750Z,94958.00
2017-10-27T13:55:14.524Z,94954.70
2017-10-27T13:57:42.369Z,94951.41
2017-10-27T14:00:11.405Z,94947.77
2017-10-27T14:02:39.486Z,94942.83
2017-10-27T14:05:07.296Z,94936.52
2017-10-27T14:07:35.964Z,94931.52
2017-10-27T14:10:03.517Z,94929.73
2017-10-27T14:12:31.829Z,94930.94
2017-10-27T14:14:59.405Z,94926.06
2017-10-27T14:17:26.938Z,94919.59
2017-10-27T14:19:54.450Z,94919.55
2017-10-27T14:22:22.245Z,94912.39
2017-10-27T14:24:50.102Z,94910.52
2017-10-27T14:27:17.731Z,94899.41
2017-10-27T14:29:45.328Z,94901.16
2017-10-27T14:32:12.958Z,94899.66
2017-10-27T14:34:40.718Z,94895.58
2017-10-27T14:37:08.888Z,94894.11
2017-10-27T14:39:37.311Z,94888.22
2017-10-27T14:42:04.890Z,94889.42
2017-10-27T14:44:32.407Z,94889.06
2017-10-27T14:47:00.001Z,94876.14
2017-10-27T14:49:27.545Z,94883.18
2017-10-27T14:51:55.094Z,94880.11
2017-10-27T14:54:22.675Z,94880.38
2017-10-27T14:56:50.290Z,94882.16
2017-10-27T14:59:17.863Z,94873.77
2017-10-27T15:01:45.480Z,94872.87
2017-10-27T15:04:13.136Z,94872.30
2017-10-27T15:06:40.949Z,94876.23
2017-10-27T15:09:08.580Z,94865.30
2017-10-27T15:11:36.118Z,94864.74
2017-10-27T15:14:03.721Z,94857.95
2017-10-27T15:16:33.258Z,94854.27
2017-10-27T15:19:00.854Z,94859.89
2017-10-27T15:21:28.419Z,94860.90
2017-10-27T15:23:56.545Z,94859.92
2017-10-27T15:26:24.145Z,94855.64
2017-10-27T15:28:51.999Z,94857.80
2017-10-27T15:31:19.600Z,94852.95
2017-10-27T15:33:47.374Z,94846.91
2017-10-27T15:36:15.003Z,94851.59
2017-10-27T15:38:42.571Z,94847.91
2017-10-27T15:41:10.475Z,94841.48
2017-10-27T15:43:38.026Z,94837.18
2017-10-27T15:46:05.927Z,94840.91
2017-10-27T15:48:33.489Z,94843.83
2017-10-27T15:51:01.247Z,94834.08
2017-10-27T15:53:28.889Z,94829.01
2017-10-27T15:55:56.430Z,94834.47
2017-10-27T15:58:23.970Z,94830.98
2017-10-27T16:00:51.544Z,94820.83
2017-10-27T16:03:19.070Z,94816.27
2017-10-27T16:05:46.594Z,94813.14
2017-10-27T16:08:14.171Z,94815.30
2017-10-27T16:10:41.702Z,94828.75
2017-10-27T16:13:09.401Z,94829.51
2017-10-27T16:15:36.989Z,94833.59
2017-10-27T16:18:04.564Z,94827.18
2017-10-27T16:20:32.142Z,94830.48
2017-10-27T16:23:00.341Z,94835.99
2017-10-27T16:25:27.968Z,94823.16
2017-10-27T16:27:56.452Z,94832.14
2017-10-27T16:30:24.034Z,94832.97
2017-10-27T16:32:51.578Z,94827.48
2017-10-27T16:35:19.688Z,94842.38
2017-10-27T16:37:47.390Z,94841.20
2017-10-27T16:40:15.222Z,94831.88
2017-10-27T16:42:49.867Z,94823.94
2017-10-27T16:45:17.627Z,94816.31
2017-10-27T16:47:45.376Z,94822.49
2017-10-27T16:50:13.038Z,94833.36
2017-10-27T16:52:40.775Z,94819.70
2017-10-27T16:55:08.329Z,94821.42
2017-10-27T16:57:36.008Z,94834.08
2017-10-27T17:00:07.055Z,94826.72
2017-10-27T17:02:34.667Z,94820.31
2017-10-27T17:05:02.271Z,94829.44
2017-10-27T17:07:29.847Z,94827.55
2017-10-27T17:09:57.651Z,94820.45
2017-10-27T17:12:25.214Z,94813.47
2017-10-27T17:14:52.858Z,94811.89
2017-10-27T17:17:20.386Z,94802.54
2017-10-27T17:19:47.997Z,94807.37
2017-10-27T17:22:15.577Z,94804.33
2017-10-27T17:24:43.420Z,94812.41
2017-10-27T17:27:10.996Z,94804.29
2017-10-27T17:29:38.598Z,94806.62
2017-10-27T17:32:06.178Z,94801.17
2017-10-27T17:34:33.760Z,94799.06
2017-10-27T17:37:01.341Z,94799.58
2017-10-27T17:39:29.020Z,94793.75
2017-10-27T17:41:56.609Z,94801.28
2017-10-27T17:44:24.223Z,94807.75
2017-10-27T17:46:51.818Z,94794.66
2017-10-27T17:49:19.379Z,94803.95
2017-10-27T17:51:46.922Z,94797.56
2017-10-27T17:54:14.518Z,94797.81
2017-10-27T17:56:42.137Z,94804.46
2017-10-27T17:59:09.759Z,94814.29
2017-10-27T18:01:37.396Z,94797.04
2017-10-27T18:04:04.963Z,94785.59
2017-10-27T18:06:32.495Z,94795.89
2017-10-27T18:09:00.992Z,94801.73
2017-10-27T18:11:28.528Z,94798.05
2017-10-27T18:13:56.106Z,94803.88
2017-10-27T18:16:23.808Z,94807.92
2017-10-27T18:18:51.493Z,94804.14
2017-10-27T18:21:19.278Z,94796.06
2017-10-27T18:23:46.852Z,94807.09
2017-10-27T18:26:14.422Z,94802.14
2017-10-27T18:28:41.997Z,94801.13
2017-10-27T18:31:09.610Z,94798.20
2017-10-27T18:33:37.138Z,94798.40
2017-10-27T18:36:04.725Z,94791.64
2017-10-27T18:38:32.346Z,94795.53
2017-10-27T18:40:59.953Z,94797.20
2017-10-27T18:43:27.550Z,94795.28
2017-10-27T18:45:55.143Z,94791.77
2017-10-27T18:48:22.772Z,94789.52
2017-10-27T18:50:50.355Z,94795.11
2017-10-27T18:53:18.021Z,94798.25
2017-10-27T18:55:45.597Z,94791.86
2017-10-27T18:58:13.110Z,94795.14
2017-10-27T19:00:40.746Z,94796.35
2017-10-27T19:03:08.354Z,94791.66
2017-10-27T19:05:35.978Z,94782.44
2017-10-27T19:08:03.578Z,94793.64
2017-10-27T19:10:31.090Z,94789.47
2017-10-27T19:12:58.601Z,94787.11
2017-10-27T19:15:26.181Z,94792.67
2017-10-27T19:17:53.714Z,94796.42
2017-10-27T19:20:21.287Z,94795.77
2017-10-27T19:22:52.199Z,94789.30
2017-10-27T19:25:20.069Z,94791.23
2017-10-27T19:27:47.602Z,94791.14
2017-10-27T19:30:15.385Z,94797.06
2017-10-27T19:32:42.904Z,94801.44
2017-10-27T19:35:10.472Z,94793.86
2017-10-27T19:37:38.077Z,94789.48
2017-10-27T19:40:05.850Z,94799.06
2017-10-27T19:42:33.382Z,94801.88
2017-10-27T19:45:00.957Z,94800.41
2017-10-27T19:47:28.736Z,94807.94
2017-10-27T19:49:56.302Z,94810.88
2017-10-27T19:52:24.573Z,94810.69
2017-10-27T19:54:52.165Z,94804.64
2017-10-27T19:57:20.034Z,94817.25
2017-10-27T19:59:47.691Z,94806.80
2017-10-27T20:02:15.318Z,94819.81
2017-10-27T20:04:42.876Z,94817.06
2017-10-27T20:07:10.477Z,94815.48
2017-10-27T20:09:38.137Z,94814.11
2017-10-27T20:12:06.178Z,94815.30
2017-10-27T20:14:33.745Z,94806.06
2017-10-27T20:17:01.323Z,94808.99
2017-10-27T20:19:28.879Z,94808.70
2017-10-27T20:21:56.493Z,94814.80
2017-10-27T20:24:24.205Z,94807.86
2017-10-27T20:26:51.808Z,94812.44
2017-10-27T20:29:19.343Z,94809.67
2017-10-27T20:31:46.955Z,94816.61
2017-10-27T20:34:14.495Z,94817.47
2017-10-27T20:36:42.075Z,94812.23
2017-10-27T20:39:09.657Z,94807.37
2017-10-27T20:41:37.298Z,94806.63
2017-10-27T20:44:04.935Z,94810.05
2017-10-27T20:46:32.537Z,94807.64
2017-10-27T20:49:00.080Z,94798.05
2017-10-27T20:51:27.625Z,94795.46
2017-10-27T20:53:55.214Z,94793.55
2017-10-27T20:56:23.651Z,94797.52
2017-10-27T20:58:51.185Z,94791.19
2017-10-27T21:01:18.821Z,94805.34
2017-10-27T21:03:46.406Z,94795.34
2017-10-27T21:06:14.233Z,94802.13
2017-10-27T21:08:41.865Z,94798.02
2017-10-27T21:11:09.446Z,94792.67
2017-10-27T21:13:37.326Z,94797.53
2017-10-27T21:16:04.980Z,94805.55
2017-10-27T21:18:32.955Z,94809.56
2017-10-27T21:21:00.493Z,94816.36
2017-10-27T21:23:28.055Z,94807.58
2017-10-27T21:25:56.451Z,94817.23
2017-10-27T21:28:24.034Z,94808.84
2017-10-27T21:30:51.633Z,94814.20
2017-10-27T21:33:19.178Z,94821.49
2017-10-27T21:35:46.740Z,94827.39
2017-10-27T21:38:14.314Z,94822.18
2017-10-27T21:40:41.848Z,94824.03
2017-10-27T21:43:09.400Z,94817.58
2017-10-27T21:45:37.194Z,94819.48
2017-10-27T21:48:04.755Z,94809.50
2017-10-27T21:50:32.314Z,94827.67
2017-10-27T21:52:59.934Z,94825.11
2017-10-27T21:55:27.478Z,94826.52
2017-10-27T21:57:55.036Z,94835.09
2017-10-27T22:00:22.730Z,94824.52
2017-10-27T22:02:50.253Z,94823.05
2017-10-27T22:05:17.844Z,94828.03
2017-10-27T22:07:45.452Z,94830.83
2017-10-27T22:10:12.986Z,94828.75
2017-10-27T22:12:40.527Z,94834.86
2017-10-27T22:15:08.112Z,94832.55
2017-10-27T22:17:35.621Z,94835.07
2017-10-27T22:20:03.147Z,94836.70
2017-10-27T22:22:30.734Z,94848.17
2017-10-27T22:24:58.277Z,94842.06
2017-10-27T22:27:25.798Z,94849.33
2017-10-27T22:29:53.408Z,94847.01
2017-10-27T22:32:21.041Z,94835.72
2017-10-27T22:34:48.830Z,94851.30
2017-10-27T22:37:16.387Z,94862.03
2017-10-27T22:39:43.962Z,94867.37
2017-10-27T22:42:11.788Z,94857.30
2017-10-27T22:44:39.315Z,94874.22
2017-10-27T22:47:06.887Z,94874.92
2017-10-27T22:49:34.412Z,94892.49
2017-10-27T22:52:03.471Z,94897.27
2017-10-27T22:54:31.161Z,94914.41
2017-10-27T22:56:58.726Z,94913.97
2017-10-27T22:59:27.054Z,94919.30
2017-10-27T23:01:54.764Z,94915.63
2017-10-27T23:04:22.286Z,94937.75
2017-10-27T23:06:49.814Z,94921.81
2017-10-27T23:09:17.438Z,94948.68
2017-10-27T23:11:45.189Z,94934.69
2017-10-27T23:14:12.787Z,94941.04
2017-10-27T23:16:41.254Z,94959.62
2017-10-27T23:19:08.992Z,94951.97
2017-10-27T23:21:36.736Z,94961.64
2017-10-27T23:24:04.353Z,94966.00
2017-10-27T23:26:31.868Z,94973.66
2017-10-27T23:28:59.704Z,94961.02
2017-10-27T23:31:27.317Z,94964.69
2017-10-27T23:33:54.901Z,94978.07
2017-10-27T23:36:22.442Z,94973.14
2017-10-27T23:38:50.115Z,94984.02
2017-10-27T23:41:17.740Z,94983.50
2017-10-27T23:43:45.318Z,94993.86
2017-10-27T23:46:12.909Z,94973.63
2017-10-27T23:48:40.472Z,95009.31
2017-10-27T23:51:08.661Z,95000.45
2017-10-27T23:53:36.281Z,95003.80
2017-10-27T23:56:04.125Z,95028.91
2017-10-27T23:58:31.690Z,95030.77
